Main page
METAR-TAF:

METAR-TAF

Airports :

Aurillac – Tronquières Airport

Aurillac, France

latitude: 44-53N, longitude: 002-25E, elevation: 639 m

Current weather observation

The report was made 40 minutes ago, at 15:00 UTC
Wind 7 kt from the Northwest, varying between West and North
Temperature 15°C
Humidity 39%
Pressure 1016 hPa
Visibility: 9000 m

METAR: LFLW 281500Z AUTO 31007KT 260V360 9000 ////// 15/01 Q1016

Time: 16:40 (15:40 UTC)

Forecast

The report was made 22 hours and 37 minutes ago, at 17:03 UTC
Forecast valid from 27 at 17 UTC to 27 at 24 UTC
Wind 6 kt from the Northwest
Visibility 10 km or more
no clouds below 1500 m and no cumulonimbus

TAF: LFLW 271703Z 2717/2724 31006KT CAVOK

Weather observations and forecasts of more than 4000 airports (METAR and TAF reports).

The available stations are represented by yellow and red dots on the map.

Hover mouse over dot to see the name of the station.

Then click to see weather observations and forecasts.

To change the map : click on the green buttons with a black cross to zoom in, on the green button with a dash to zoom out, or on the green arrows for adjacent maps.


METAR-TAF: